Time;durP1;ratioP1;P1;durP2;ratioP2;P2;SDS_P1;SDS_P2;PMS_P1;PMS_P2;Temp;Humidity;BMP_temperature;BMP_pressure;BME280_temperature;BME280_humidity;BME280_pressure;Samples;Min_cycle;Max_cycle;Signal;HPM_P1;HPM_P2
2023/10/14 00:01:04;;;;;;;;;;;;;;;14.56;57.67;99774.59;5012446;28;19940;-72
2023/10/14 00:03:32;;;;;;;;;;;;;;;14.78;56.62;99778.94;5011100;28;20388;-72
2023/10/14 00:06:00;;;;;;;;;;;;;;;15.16;55.77;99771.16;5012566;28;20399;-72
2023/10/14 00:08:27;;;;;;;;;;;;;;;15.44;54.98;99776.78;5031054;28;19913;-72
2023/10/14 00:10:53;;;;;;;;;;;;;;;15.17;55.10;99778.41;5030621;28;20063;-72
2023/10/14 00:13:18;;;;;;;;;;;;;;;14.84;56.06;99771.03;5030606;28;20360;-72
2023/10/14 00:15:45;;;;;;;;;;;;;;;14.60;56.45;99762.28;5010966;28;19918;-72
2023/10/14 00:18:11;;;;;;;;;;;;;;;14.25;58.00;99757.16;5012118;28;19964;-72
2023/10/14 00:20:36;;;;;;;;;;;;;;;14.06;58.50;99754.13;5012225;28;19913;-72
2023/10/14 00:23:02;;;;;;;;;;;;;;;14.07;58.41;99756.59;5010746;28;19918;-72
2023/10/14 00:25:27;;;;;;;;;;;;;;;14.21;58.25;99755.41;5012087;28;20004;-72
2023/10/14 00:27:52;;;;;;;;;;;;;;;13.86;59.63;99746.28;5023137;28;19918;-73
2023/10/14 00:30:20;;;;;;;;;;;;;;;13.82;59.66;99752.97;5012012;28;20303;-73
2023/10/14 00:32:46;;;;;;;;;;;;;;;13.93;59.47;99747.69;5012031;28;19913;-73
2023/10/14 00:35:12;;;;;;;;;;;;;;;13.94;59.51;99735.28;5029152;28;20446;-73
2023/10/14 00:37:37;;;;;;;;;;;;;;;13.93;59.30;99744.88;5031655;28;19983;-73
2023/10/14 00:40:10;;;;;;;;;;;;;;;13.82;59.69;99750.16;5032053;28;19950;-73
2023/10/14 00:42:36;;;;;;;;;;;;;;;13.89;59.47;99745.59;5030284;28;19913;-73
2023/10/14 00:45:09;;;;;;;;;;;;;;;13.81;59.60;99738.06;5030108;28;19921;-73
2023/10/14 00:47:34;;;;;;;;;;;;;;;13.89;59.39;99742.78;5014042;28;19975;-74
2023/10/14 00:50:02;;;;;;;;;;;;;;;13.84;59.23;99745.00;5031527;28;19964;-73
2023/10/14 00:52:29;;;;;;;;;;;;;;;13.70;60.06;99736.91;5031488;28;19995;-73
2023/10/14 00:57:20;;;;;;;;;;;;;;;14.35;57.62;99733.34;5016064;28;20420;-74
2023/10/14 00:59:47;;;;;;;;;;;;;;;14.03;57.61;99724.72;5031719;28;19917;-73
2023/10/14 01:02:13;;;;;;;;;;;;;;;13.80;58.31;99719.56;5019905;28;19917;-74
2023/10/14 01:04:40;;;;;;;;;;;;;;;13.66;58.84;99719.09;5015681;28;20003;-73
2023/10/14 01:07:12;;;;;;;;;;;;;;;13.52;59.56;99711.00;5027315;28;20311;-74
2023/10/14 01:14:46;;;;;;;;;;;;;;;13.67;59.30;99709.50;5035651;28;19983;-73
2023/10/14 01:17:21;;;;;;;;;;;;;;;14.13;58.61;99703.72;5027095;28;20418;-73
2023/10/14 01:19:47;;;;;;;;;;;;;;;14.35;57.43;99702.41;5015392;28;19913;-74
2023/10/14 01:22:12;;;;;;;;;;;;;;;14.53;57.03;99704.94;5022300;28;19949;-74
2023/10/14 01:24:41;;;;;;;;;;;;;;;14.63;56.84;99700.81;5035159;28;20003;-74
2023/10/14 01:27:07;;;;;;;;;;;;;;;14.55;56.26;99697.78;5034914;28;19917;-73
2023/10/14 01:29:39;;;;;;;;;;;;;;;14.40;56.16;99702.16;5034931;28;19917;-73
2023/10/14 01:32:23;;;;;;;;;;;;;;;13.60;58.55;99701.66;5035029;28;20395;-74
2023/10/14 01:34:49;;;;;;;;;;;;;;;13.06;60.43;99701.41;5023195;28;19917;-73
2023/10/14 01:37:17;;;;;;;;;;;;;;;13.00;60.89;99697.16;5013772;28;19972;-74
2023/10/14 01:39:48;;;;;;;;;;;;;;;12.91;61.21;99702.03;5015118;28;19914;-73
2023/10/14 01:42:14;;;;;;;;;;;;;;;12.74;62.00;99703.84;5019929;28;19917;-73
2023/10/14 01:44:41;;;;;;;;;;;;;;;12.71;62.05;99698.91;5034788;28;19913;-74
2023/10/14 01:47:07;;;;;;;;;;;;;;;12.76;62.34;99706.31;5033709;28;20060;-73
2023/10/14 01:49:35;;;;;;;;;;;;;;;12.59;63.17;99708.09;5029585;28;20008;-74
2023/10/14 01:52:00;;;;;;;;;;;;;;;12.38;64.73;99712.91;5013627;28;19914;-74
2023/10/14 01:54:26;;;;;;;;;;;;;;;12.32;65.11;99707.47;5014682;28;20277;-73
2023/10/14 01:56:51;;;;;;;;;;;;;;;12.31;65.50;99707.84;5027029;28;19917;-73
2023/10/14 01:59:22;;;;;;;;;;;;;;;12.31;65.70;99707.84;5034137;28;19917;-73
2023/10/14 02:01:48;;;;;;;;;;;;;;;12.38;65.61;99708.09;5033168;28;20001;-73
2023/10/14 02:04:14;;;;;;;;;;;;;;;12.28;66.22;99702.88;5034386;28;19924;-73
2023/10/14 02:06:44;;;;;;;;;;;;;;;12.25;66.85;99697.97;5031280;28;20339;-73
2023/10/14 02:09:10;;;;;;;;;;;;;;;12.33;66.42;99695.09;5014302;28;20371;-73
2023/10/14 02:11:36;;;;;;;;;;;;;;;12.57;65.70;99692.78;5034083;28;19964;-74
2023/10/14 02:14:11;;;;;;;;;;;;;;;12.58;65.69;99691.63;5032820;28;20307;-74
2023/10/14 02:16:44;;;;;;;;;;;;;;;12.52;65.58;99696.63;5033861;28;20350;-74
2023/10/14 02:19:20;;;;;;;;;;;;;;;12.64;64.80;99699.47;5033930;28;19917;-74
2023/10/14 02:21:49;;;;;;;;;;;;;;;12.36;65.63;99699.22;5029311;28;19914;-73
2023/10/14 02:24:18;;;;;;;;;;;;;;;12.25;66.07;99697.97;5014158;28;20281;-73
2023/10/14 02:26:43;;;;;;;;;;;;;;;12.16;66.19;99695.22;5024680;28;19921;-74
2023/10/14 02:29:10;;;;;;;;;;;;;;;12.09;66.36;99690.16;5032799;28;19928;-73
2023/10/14 02:31:36;;;;;;;;;;;;;;;12.18;65.91;99696.50;5032584;28;20387;-73
2023/10/14 02:34:08;;;;;;;;;;;;;;;12.23;65.54;99695.50;5033622;28;19924;-73
2023/10/14 02:36:40;;;;;;;;;;;;;;;11.96;67.11;99688.41;5033586;28;19924;-73
2023/10/14 02:39:14;;;;;;;;;;;;;;;11.91;67.39;99684.63;5031286;28;19921;-73
2023/10/14 02:41:40;;;;;;;;;;;;;;;11.91;67.72;99681.81;5014003;28;19913;-73
2023/10/14 02:46:44;;;;;;;;;;;;;;;12.11;67.15;99685.03;5022301;28;20307;-73
2023/10/14 02:49:14;;;;;;;;;;;;;;;12.41;66.28;99684.16;5033391;28;20061;-73
2023/10/14 02:51:43;;;;;;;;;;;;;;;12.19;66.80;99683.31;5032321;28;20379;-73
2023/10/14 02:54:15;;;;;;;;;;;;;;;12.18;66.97;99682.50;5032113;28;19921;-73
2023/10/14 02:56:57;;;;;;;;;;;;;;;12.06;67.24;99685.22;5023503;28;20384;-73
2023/10/14 02:59:35;;;;;;;;;;;;;;;11.85;68.01;99685.16;5012277;28;19924;-73
2023/10/14 03:05:08;;;;;;;;;;;;;;;11.76;68.27;99676.81;5013824;28;19953;-73
2023/10/14 03:07:43;;;;;;;;;;;;;;;11.82;68.51;99685.84;5013625;28;19918;-73
2023/10/14 03:12:40;;;;;;;;;;;;;;;12.00;67.26;99686.56;5025916;28;19971;-74
2023/10/14 03:15:18;;;;;;;;;;;;;;;11.90;67.32;99679.38;5028148;28;19940;-73
2023/10/14 03:17:51;;;;;;;;;;;;;;;11.94;66.77;99678.34;5020931;28;19917;-73
2023/10/14 03:22:54;;;;;;;;;;;;;;;11.87;66.76;99682.84;5032886;28;20379;-73
2023/10/14 03:25:23;;;;;;;;;;;;;;;11.93;66.44;99681.50;5032422;28;19921;-73
2023/10/14 03:27:49;;;;;;;;;;;;;;;11.70;67.11;99684.56;5032308;28;20299;-73
2023/10/14 03:30:15;;;;;;;;;;;;;;;11.78;67.06;99675.31;5015821;28;19957;-74
2023/10/14 03:32:42;;;;;;;;;;;;;;;11.61;68.02;99675.38;5012918;28;20372;-73
2023/10/14 03:35:11;;;;;;;;;;;;;;;11.67;68.00;99674.06;5012891;28;20309;-73
2023/10/14 03:37:40;;;;;;;;;;;;;;;11.98;67.05;99680.47;5031094;28;20030;-73
2023/10/14 03:42:54;;;;;;;;;;;;;;;12.08;66.50;99678.13;5013157;28;19921;-73
2023/10/14 03:45:28;;;;;;;;;;;;;;;11.89;67.22;99675.72;5012358;28;20446;-73
2023/10/14 03:47:59;;;;;;;;;;;;;;;11.94;66.86;99671.91;5031029;28;20383;-74
2023/10/14 03:50:24;;;;;;;;;;;;;;;11.94;67.60;99675.56;5032027;28;19940;-73
2023/10/14 03:52:51;;;;;;;;;;;;;;;11.81;68.23;99673.78;5032396;28;19913;-74
2023/10/14 03:55:24;;;;;;;;;;;;;;;11.81;68.12;99668.19;5030691;28;19913;-73
2023/10/14 03:57:51;;;;;;;;;;;;;;;11.92;67.72;99672.25;5032322;28;20003;-74
2023/10/14 04:00:25;;;;;;;;;;;;;;;11.72;69.02;99671.03;5030895;28;19913;-73
2023/10/14 04:02:50;;;;;;;;;;;;;;;11.73;68.74;99671.88;5027966;28;20331;-73
2023/10/14 04:05:19;;;;;;;;;;;;;;;11.65;69.11;99667.97;5029469;28;19917;-72
2023/10/14 04:07:44;;;;;;;;;;;;;;;11.66;69.14;99666.81;5008574;28;19920;-73
2023/10/14 04:10:11;;;;;;;;;;;;;;;11.57;69.31;99666.84;5009715;28;19921;-76
2023/10/14 04:12:37;;;;;;;;;;;;;;;11.54;69.51;99664.72;5022174;28;19917;-72
2023/10/14 04:17:38;;;;;;;;;;;;;;;11.44;70.40;99670.69;5029423;28;19920;-73
2023/10/14 04:30:32;;;;;;;;;;;;;;;11.25;71.79;99663.53;4997492;28;19943;-72
2023/10/14 04:35:26;;;;;;;;;;;;;;;11.36;71.03;99678.81;5010854;28;19921;-71
2023/10/14 04:37:52;;;;;;;;;;;;;;;11.33;70.60;99676.66;5017162;28;20007;-71
2023/10/14 04:44:02;;;;;;;;;;;;;;;11.14;71.09;99676.25;5029168;28;19921;-72
2023/10/14 04:46:13;;;;;;;;;;;;;;;11.16;71.40;99680.38;5023749;28;20395;-73
2023/10/14 04:48:39;;;;;;;;;;;;;;;11.26;70.55;99679.16;5027571;28;19977;-72
2023/10/14 04:51:15;;;;;;;;;;;;;;;11.19;70.95;99682.47;5028525;28;19937;-73
2023/10/14 04:53:43;;;;;;;;;;;;;;;11.21;71.17;99679.31;5023788;28;20297;-70
2023/10/14 04:56:09;;;;;;;;;;;;;;;11.16;71.23;99680.38;5015147;28;19924;-71
2023/10/14 04:58:34;;;;;;;;;;;;;;;11.10;71.80;99687.28;5027813;28;19927;-71
2023/10/14 05:01:03;;;;;;;;;;;;;;;11.05;71.96;99679.88;5028874;28;19947;-71
2023/10/14 05:03:32;;;;;;;;;;;;;;;11.17;71.76;99693.19;5028566;28;20416;-71
2023/10/14 05:06:03;;;;;;;;;;;;;;;11.07;72.18;99690.75;5028580;28;19917;-71
2023/10/14 05:08:44;;;;;;;;;;;;;;;11.17;71.17;99690.41;5027514;28;19917;-71
2023/10/14 05:11:12;;;;;;;;;;;;;;;11.22;71.21;99692.16;5028079;28;19968;-70
2023/10/14 05:13:39;;;;;;;;;;;;;;;11.22;71.57;99692.16;5028790;28;19925;-69
2023/10/14 05:16:26;;;;;;;;;;;;;;;11.29;71.55;99695.28;5028338;28;20516;-71
2023/10/14 05:21:35;;;;;;;;;;;;;;;11.66;70.32;99698.44;5028531;28;20354;-69
2023/10/14 05:24:02;;;;;;;;;;;;;;;11.75;70.12;99700.38;5026876;28;20680;-69
2023/10/14 05:26:27;;;;;;;;;;;;;;;11.99;69.48;99702.53;5028395;28;19940;-69
2023/10/14 05:28:53;;;;;;;;;;;;;;;11.97;69.28;99704.06;5026185;28;20403;-70
2023/10/14 05:31:18;;;;;;;;;;;;;;;12.08;69.40;99706.16;5026644;28;19921;-69
2023/10/14 05:33:43;;;;;;;;;;;;;;;12.29;68.65;99707.34;5027301;28;19936;-70
2023/10/14 05:36:09;;;;;;;;;;;;;;;12.49;68.41;99714.94;5027815;28;20395;-69
2023/10/14 05:38:34;;;;;;;;;;;;;;;12.50;68.02;99715.78;5026850;28;19932;-69
2023/10/14 05:41:00;;;;;;;;;;;;;;;12.52;68.46;99707.84;5024106;28;20042;-69
2023/10/14 05:43:26;;;;;;;;;;;;;;;12.55;68.45;99712.75;5026565;28;19922;-70
2023/10/14 05:45:52;;;;;;;;;;;;;;;12.61;68.49;99713.38;5041425;28;19924;-69
2023/10/14 05:48:17;;;;;;;;;;;;;;;12.78;67.91;99713.19;5031421;28;19925;-70
2023/10/14 05:50:43;;;;;;;;;;;;;;;13.04;67.17;99706.53;5026518;28;20276;-71
2023/10/14 05:53:08;;;;;;;;;;;;;;;12.95;67.33;99705.81;5010998;28;19913;-70
2023/10/14 05:55:34;;;;;;;;;;;;;;;13.00;67.32;99713.19;5021116;28;19921;-70
2023/10/14 05:58:02;;;;;;;;;;;;;;;13.29;66.62;99709.41;5031797;28;20010;-71
2023/10/14 06:00:28;;;;;;;;;;;;;;;13.57;65.34;99711.59;5031907;28;19920;-72
2023/10/14 06:02:57;;;;;;;;;;;;;;;13.62;65.27;99716.97;5029322;28;19921;-72
2023/10/14 06:05:24;;;;;;;;;;;;;;;13.76;64.69;99713.03;5027068;28;20356;-72
2023/10/14 06:07:50;;;;;;;;;;;;;;;13.72;65.00;99712.91;5010647;28;19928;-72
2023/10/14 06:10:20;;;;;;;;;;;;;;;13.94;64.21;99713.59;5011997;28;19925;-72
2023/10/14 06:12:47;;;;;;;;;;;;;;;14.11;63.78;99717.34;5011945;28;19914;-72
2023/10/14 06:15:16;;;;;;;;;;;;;;;14.38;62.85;99710.16;5016790;28;20406;-72
2023/10/14 06:17:41;;;;;;;;;;;;;;;14.62;61.79;99711.25;5030483;28;20391;-72
2023/10/14 06:20:07;;;;;;;;;;;;;;;14.54;61.59;99718.69;5031393;28;19913;-72
2023/10/14 06:22:33;;;;;;;;;;;;;;;14.71;61.90;99713.91;5021865;28;19924;-72
2023/10/14 06:24:58;;;;;;;;;;;;;;;14.77;61.11;99720.16;5033121;28;20004;-72
2023/10/14 06:27:24;;;;;;;;;;;;;;;14.96;60.75;99717.50;5029077;28;19917;-71
2023/10/14 06:29:50;;;;;;;;;;;;;;;14.86;60.19;99718.00;5014102;28;19918;-71
2023/10/14 06:32:16;;;;;;;;;;;;;;;14.86;60.17;99723.66;5028582;28;20012;-72
2023/10/14 06:34:41;;;;;;;;;;;;;;;14.98;60.56;99715.13;5014511;28;19913;-72
2023/10/14 06:37:07;;;;;;;;;;;;;;;15.06;60.59;99715.31;5030232;28;19953;-72
2023/10/14 06:39:39;;;;;;;;;;;;;;;14.87;60.55;99714.00;5033546;28;19917;-72
2023/10/14 06:42:05;;;;;;;;;;;;;;;15.00;60.75;99709.97;5030977;28;20196;-73
2023/10/14 06:44:32;;;;;;;;;;;;;;;15.15;59.87;99707.53;5013860;28;19961;-73
2023/10/14 06:46:57;;;;;;;;;;;;;;;15.49;58.95;99705.22;5032111;28;19917;-73
2023/10/14 06:49:36;;;;;;;;;;;;;;;15.42;58.88;99707.84;5032707;28;19921;-73
2023/10/14 06:52:04;;;;;;;;;;;;;;;15.74;58.05;99705.03;5033235;28;19917;-73
2023/10/14 06:54:30;;;;;;;;;;;;;;;16.05;56.92;99708.22;5031286;28;19952;-73
2023/10/14 06:56:56;;;;;;;;;;;;;;;16.05;55.64;99708.22;5028168;28;19928;-73
2023/10/14 06:59:21;;;;;;;;;;;;;;;16.13;55.51;99707.22;5028545;28;19925;-73
2023/10/14 07:01:47;;;;;;;;;;;;;;;16.16;55.82;99697.16;5013277;28;19921;-72
2023/10/14 07:04:12;;;;;;;;;;;;;;;16.40;54.97;99696.91;5021103;28;20007;-72
2023/10/14 07:06:38;;;;;;;;;;;;;;;16.57;54.84;99694.88;5027413;28;20020;-73
2023/10/14 07:09:17;;;;;;;;;;;;;;;16.51;53.98;99697.19;5011800;28;20052;-71
2023/10/14 07:11:43;;;;;;;;;;;;;;;16.76;53.66;99690.41;5012240;28;19920;-71
2023/10/14 07:14:08;;;;;;;;;;;;;;;16.79;53.19;99690.47;5030956;28;19924;-73
2023/10/14 07:16:35;;;;;;;;;;;;;;;16.91;52.39;99689.53;5032038;28;19918;-73
2023/10/14 07:19:00;;;;;;;;;;;;;;;17.13;51.79;99687.13;5032288;28;20358;-73
2023/10/14 07:21:25;;;;;;;;;;;;;;;17.24;52.06;99684.53;5030014;28;19921;-73
2023/10/14 07:23:51;;;;;;;;;;;;;;;17.58;50.64;99679.06;5011489;28;20351;-73
2023/10/14 07:26:16;;;;;;;;;;;;;;;17.68;49.15;99683.25;5013117;28;19918;-73
2023/10/14 07:28:51;;;;;;;;;;;;;;;17.86;47.48;99679.91;5011760;28;19988;-73
2023/10/14 07:31:16;;;;;;;;;;;;;;;17.86;48.16;99679.91;5012944;28;19917;-71
2023/10/14 07:33:42;;;;;;;;;;;;;;;18.14;48.11;99676.72;5019374;28;19967;-70
2023/10/14 07:36:07;;;;;;;;;;;;;;;18.29;47.56;99671.28;5030377;28;19917;-70
2023/10/14 07:38:36;;;;;;;;;;;;;;;18.36;47.26;99675.03;5031745;28;19925;-71
2023/10/14 07:41:01;;;;;;;;;;;;;;;18.66;46.60;99674.19;5032070;28;19917;-70
2023/10/14 07:43:27;;;;;;;;;;;;;;;18.73;46.10;99675.50;5032416;28;20063;-72
2023/10/14 07:45:52;;;;;;;;;;;;;;;18.99;45.81;99668.09;5032222;28;20012;-69
2023/10/14 07:48:19;;;;;;;;;;;;;;;19.18;45.21;99664.28;5029950;28;19924;-69
2023/10/14 07:50:47;;;;;;;;;;;;;;;18.94;44.72;99666.44;5031639;28;20069;-69
2023/10/14 07:53:13;;;;;;;;;;;;;;;19.06;44.50;99656.84;5030444;28;19924;-70
2023/10/14 07:55:43;;;;;;;;;;;;;;;19.54;43.70;99658.13;5025599;28;19920;-72
2023/10/14 07:58:10;;;;;;;;;;;;;;;19.42;43.19;99664.91;5029382;28;19917;-72
2023/10/14 08:00:38;;;;;;;;;;;;;;;19.52;43.12;99661.38;5029878;28;20296;-72
2023/10/14 08:03:06;;;;;;;;;;;;;;;19.86;42.76;99651.91;5028197;28;19917;-71
2023/10/14 08:05:33;;;;;;;;;;;;;;;20.21;42.63;99650.53;5026657;28;19921;-70
2023/10/14 08:08:05;;;;;;;;;;;;;;;20.56;42.98;99649.09;5029527;28;20387;-70
2023/10/14 08:10:31;;;;;;;;;;;;;;;20.71;41.59;99640.63;5021349;28;20355;-70
2023/10/14 08:12:57;;;;;;;;;;;;;;;20.86;40.87;99639.47;5012173;28;20008;-71
2023/10/14 08:15:22;;;;;;;;;;;;;;;20.86;40.61;99642.31;5027171;28;19924;-71
2023/10/14 08:17:51;;;;;;;;;;;;;;;20.69;40.81;99637.38;5031835;28;20346;-71
2023/10/14 08:20:19;;;;;;;;;;;;;;;20.43;41.57;99634.41;5032008;28;19913;-71
2023/10/14 08:22:45;;;;;;;;;;;;;;;20.59;41.53;99628.41;5031846;28;19921;-71
2023/10/14 08:25:11;;;;;;;;;;;;;;;20.80;41.14;99629.69;5031438;28;19917;-72
2023/10/14 08:27:36;;;;;;;;;;;;;;;20.98;40.70;99632.63;5031898;28;19913;-71
2023/10/14 08:30:10;;;;;;;;;;;;;;;20.77;40.96;99625.63;5026591;28;19921;-71
2023/10/14 08:32:37;;;;;;;;;;;;;;;21.10;40.81;99628.56;5027267;28;19924;-71
2023/10/14 08:35:03;;;;;;;;;;;;;;;20.98;40.16;99626.94;5026772;28;19923;-71
2023/10/14 08:37:34;;;;;;;;;;;;;;;21.38;39.88;99623.31;5012052;28;19914;-71
2023/10/14 08:40:00;;;;;;;;;;;;;;;21.36;39.52;99626.59;5030528;28;19936;-72
2023/10/14 08:42:26;;;;;;;;;;;;;;;21.58;39.35;99620.88;5031729;28;19917;-71
2023/10/14 08:44:52;;;;;;;;;;;;;;;21.90;40.22;99607.84;5023296;28;20458;-72
2023/10/14 08:47:18;;;;;;;;;;;;;;;22.02;40.36;99611.09;5011535;28;19913;-71
2023/10/14 08:49:45;;;;;;;;;;;;;;;22.32;38.38;99599.59;5011771;28;19969;-71
2023/10/14 08:52:10;;;;;;;;;;;;;;;22.46;38.18;99602.41;5020026;28;19917;-71
2023/10/14 08:54:37;;;;;;;;;;;;;;;22.73;38.11;99599.06;5030197;28;20319;-71
2023/10/14 08:57:05;;;;;;;;;;;;;;;22.92;36.86;99596.88;5026787;28;19918;-72
2023/10/14 08:59:30;;;;;;;;;;;;;;;23.10;36.42;99600.44;5011851;28;19913;-71
2023/10/14 09:01:56;;;;;;;;;;;;;;;23.08;36.77;99594.34;5027510;28;19998;-71
2023/10/14 09:04:29;;;;;;;;;;;;;;;23.16;36.25;99591.44;5011606;28;19936;-71
2023/10/14 09:07:01;;;;;;;;;;;;;;;23.30;36.33;99590.56;5011723;28;19976;-71
2023/10/14 09:09:26;;;;;;;;;;;;;;;23.35;35.48;99590.91;5030138;28;19987;-71
2023/10/14 09:11:51;;;;;;;;;;;;;;;23.49;35.17;99594.88;5030815;28;19961;-71
2023/10/14 09:14:17;;;;;;;;;;;;;;;23.61;34.73;99587.84;5030060;28;19913;-71
2023/10/14 09:16:48;;;;;;;;;;;;;;;23.82;35.85;99579.06;5032668;28;20008;-72
2023/10/14 09:19:15;;;;;;;;;;;;;;;23.83;35.42;99577.84;5034217;28;20020;-71
2023/10/14 09:21:43;;;;;;;;;;;;;;;23.86;35.60;99564.75;5015816;28;20008;-71
2023/10/14 09:24:08;;;;;;;;;;;;;;;23.51;36.46;99558.16;5028556;28;19917;-71
2023/10/14 09:26:38;;;;;;;;;;;;;;;23.89;35.58;99552.50;5034103;28;19997;-72
2023/10/14 09:29:04;;;;;;;;;;;;;;;24.03;35.57;99556.44;5024360;28;19917;-71
2023/10/14 09:31:29;;;;;;;;;;;;;;;24.04;34.66;99550.31;5032994;28;20457;-72
2023/10/14 09:33:54;;;;;;;;;;;;;;;23.99;34.70;99536.47;5035212;28;20384;-73
2023/10/14 09:36:20;;;;;;;;;;;;;;;23.89;33.63;99538.22;5033071;28;19946;-71
2023/10/14 09:38:49;;;;;;;;;;;;;;;23.69;34.53;99535.16;5033572;28;20319;-70
2023/10/14 09:41:15;;;;;;;;;;;;;;;24.14;34.72;99525.72;5014408;28;20047;-71
2023/10/14 09:43:46;;;;;;;;;;;;;;;24.26;34.68;99521.47;5026087;28;20370;-72
2023/10/14 09:46:12;;;;;;;;;;;;;;;24.24;33.64;99523.94;5022062;28;19928;-72
2023/10/14 09:48:43;;;;;;;;;;;;;;;24.48;33.04;99524.03;5033126;28;19921;-72
2023/10/14 09:51:12;;;;;;;;;;;;;;;24.56;33.60;99516.16;5015964;28;19917;-72
2023/10/14 09:53:37;;;;;;;;;;;;;;;24.85;33.55;99508.00;5012564;28;19928;-72
2023/10/14 09:56:10;;;;;;;;;;;;;;;24.70;33.39;99501.66;5012522;28;19913;-72
2023/10/14 09:58:42;;;;;;;;;;;;;;;24.79;33.12;99495.41;5013096;28;19924;-73
2023/10/14 10:01:11;;;;;;;;;;;;;;;24.93;32.57;99495.22;5025667;28;19952;-73
2023/10/14 10:03:55;;;;;;;;;;;;;;;24.95;33.11;99486.19;5014317;28;19943;-73
2023/10/14 10:06:26;;;;;;;;;;;;;;;25.00;32.61;99488.56;5027975;28;20011;-73
2023/10/14 10:09:03;;;;;;;;;;;;;;;25.03;33.38;99478.28;5031900;28;19921;-73
2023/10/14 10:11:29;;;;;;;;;;;;;;;24.97;32.10;99477.97;5026285;28;19928;-73
2023/10/14 10:13:59;;;;;;;;;;;;;;;25.12;32.82;99478.53;5020217;28;19917;-74
2023/10/14 10:16:28;;;;;;;;;;;;;;;25.13;33.08;99467.91;5013407;28;20302;-74
2023/10/14 10:18:58;;;;;;;;;;;;;;;25.28;32.79;99466.41;5022857;28;19923;-73
2023/10/14 10:21:30;;;;;;;;;;;;;;;25.47;32.86;99464.03;5026506;28;19971;-67
2023/10/14 10:24:09;;;;;;;;;;;;;;;25.42;33.14;99461.66;5017454;28;19921;-74
2023/10/14 10:26:53;;;;;;;;;;;;;;;25.45;32.89;99450.16;5031851;28;19913;-69
2023/10/14 10:29:21;;;;;;;;;;;;;;;25.35;33.09;99446.25;5012076;28;19967;-68
2023/10/14 10:32:04;;;;;;;;;;;;;;;25.29;32.71;99435.75;5023151;28;20418;-69
2023/10/14 10:34:33;;;;;;;;;;;;;;;25.22;33.05;99433.84;5023926;28;19964;-69
2023/10/14 10:36:59;;;;;;;;;;;;;;;25.26;32.30;99431.72;5030046;28;19992;-77
2023/10/14 10:39:24;;;;;;;;;;;;;;;25.21;32.32;99417.88;5027954;28;20008;-73
2023/10/14 10:41:53;;;;;;;;;;;;;;;25.47;33.52;99415.38;5032411;28;19917;-71
2023/10/14 10:44:19;;;;;;;;;;;;;;;25.56;32.31;99412.75;5022841;28;19925;-72
2023/10/14 10:46:49;;;;;;;;;;;;;;;25.61;32.53;99405.69;5027420;28;19921;-72
2023/10/14 10:49:16;;;;;;;;;;;;;;;25.80;32.64;99401.22;5032534;28;19927;-70
2023/10/14 10:52:01;;;;;;;;;;;;;;;25.81;32.24;99394.22;5031333;28;19928;-74
2023/10/14 10:54:27;;;;;;;;;;;;;;;25.76;32.02;99395.59;5032392;28;19917;-71
2023/10/14 10:56:53;;;;;;;;;;;;;;;25.72;31.74;99382.59;5027581;28;19999;-73
2023/10/14 10:59:18;;;;;;;;;;;;;;;26.11;31.76;99380.91;5023737;28;19922;-71
2023/10/14 11:01:45;;;;;;;;;;;;;;;26.13;32.03;99375.53;5023172;28;19923;-69
2023/10/14 11:04:12;;;;;;;;;;;;;;;26.14;31.84;99376.34;5031019;28;19948;-70
2023/10/14 11:06:38;;;;;;;;;;;;;;;26.20;31.52;99368.84;5026022;28;19917;-71
2023/10/14 11:09:04;;;;;;;;;;;;;;;26.14;31.54;99365.66;5030165;28;20362;-73
2023/10/14 11:11:33;;;;;;;;;;;;;;;26.28;30.88;99363.75;5024776;28;19917;-71
2023/10/14 11:14:00;;;;;;;;;;;;;;;26.34;31.17;99359.09;5027683;28;20487;-73
2023/10/14 11:16:27;;;;;;;;;;;;;;;26.25;30.71;99358.91;5032256;28;19974;-71
2023/10/14 11:18:54;;;;;;;;;;;;;;;26.06;31.09;99341.28;5017697;28;20402;-77
2023/10/14 11:21:20;;;;;;;;;;;;;;;26.09;31.20;99349.03;5018534;28;20319;-73
2023/10/14 11:23:45;;;;;;;;;;;;;;;26.26;30.83;99344.16;5027183;28;19921;-72
2023/10/14 11:26:12;;;;;;;;;;;;;;;26.34;30.32;99341.91;5019178;28;19925;-74
2023/10/14 11:28:38;;;;;;;;;;;;;;;26.47;30.00;99339.94;5027003;28;20395;-76
2023/10/14 11:31:04;;;;;;;;;;;;;;;26.41;30.46;99335.19;5039308;28;19920;-73
2023/10/14 11:33:33;;;;;;;;;;;;;;;26.56;30.49;99329.91;5032382;28;20372;-74
2023/10/14 11:35:58;;;;;;;;;;;;;;;26.19;30.82;99325.06;5024576;28;20362;-74
2023/10/14 11:38:25;;;;;;;;;;;;;;;26.20;31.41;99317.25;5044272;28;19917;-74
2023/10/14 11:40:51;;;;;;;;;;;;;;;26.32;30.33;99318.63;5037392;28;19976;-75
2023/10/14 11:43:17;;;;;;;;;;;;;;;26.32;30.40;99315.75;5029995;28;20548;-76
2023/10/14 11:45:45;;;;;;;;;;;;;;;26.32;30.95;99310.03;5031476;28;20023;-75
2023/10/14 11:48:24;;;;;;;;;;;;;;;26.32;30.83;99304.28;5029569;28;19924;-75
2023/10/14 11:51:03;;;;;;;;;;;;;;;26.27;30.56;99294.16;5026736;28;19940;-74
2023/10/14 11:53:32;;;;;;;;;;;;;;;26.35;30.38;99291.91;5014275;28;20346;-74
2023/10/14 11:56:02;;;;;;;;;;;;;;;26.50;30.65;99280.91;5024805;28;19970;-75
2023/10/14 11:58:28;;;;;;;;;;;;;;;26.51;30.48;99281.69;5036768;28;19954;-75
2023/10/14 12:00:53;;;;;;;;;;;;;;;26.72;30.22;99277.44;5021851;28;19913;-75
2023/10/14 12:03:18;;;;;;;;;;;;;;;26.53;29.60;99280.00;5012074;28;19922;-75
2023/10/14 12:05:44;;;;;;;;;;;;;;;26.53;30.03;99268.53;5036555;28;19917;-75
2023/10/14 12:08:09;;;;;;;;;;;;;;;26.66;29.87;99264.91;5019578;28;19917;-80
2023/10/14 12:10:35;;;;;;;;;;;;;;;26.65;29.74;99261.22;5041160;28;19932;-80
2023/10/14 12:13:00;;;;;;;;;;;;;;;26.43;29.17;99267.56;5039588;28;19917;-80
2023/10/14 12:15:27;;;;;;;;;;;;;;;26.54;29.12;99261.53;5027736;28;19921;-80
2023/10/14 12:17:52;;;;;;;;;;;;;;;26.47;29.77;99253.94;5019371;28;19968;-80
2023/10/14 12:20:19;;;;;;;;;;;;;;;26.58;30.20;99247.88;5028744;28;19964;-80
2023/10/14 12:22:47;;;;;;;;;;;;;;;26.60;29.90;99245.38;5028504;28;19975;-79
2023/10/14 12:25:13;;;;;;;;;;;;;;;26.85;30.38;99251.69;5029396;28;20447;-79
2023/10/14 12:27:39;;;;;;;;;;;;;;;26.94;29.97;99243.25;5027586;28;20011;-79
2023/10/14 12:30:07;;;;;;;;;;;;;;;26.83;28.83;99237.78;5022732;28;19929;-79
2023/10/14 12:32:32;;;;;;;;;;;;;;;26.81;29.05;99239.50;5028485;28;19925;-79
2023/10/14 12:34:58;;;;;;;;;;;;;;;26.89;29.63;99232.31;5028332;28;19917;-78
2023/10/14 12:37:24;;;;;;;;;;;;;;;27.08;29.63;99226.88;5027967;28;19917;-76
2023/10/14 12:39:53;;;;;;;;;;;;;;;27.18;29.64;99226.56;5023238;28;19920;-79
2023/10/14 12:42:23;;;;;;;;;;;;;;;27.26;29.50;99224.28;5021071;28;19949;-79
2023/10/14 12:44:50;;;;;;;;;;;;;;;27.20;27.89;99223.25;5026791;28;20892;-79
2023/10/14 12:47:15;;;;;;;;;;;;;;;27.35;28.01;99219.94;5022052;28;19925;-78
2023/10/14 12:49:40;;;;;;;;;;;;;;;27.48;28.38;99212.13;5023592;28;19987;-78
2023/10/14 12:52:12;;;;;;;;;;;;;;;27.37;27.72;99206.75;5021762;28;19972;-78
2023/10/14 12:54:49;;;;;;;;;;;;;;;27.41;28.09;99210.28;5032721;28;19971;-78
2023/10/14 12:57:14;;;;;;;;;;;;;;;27.49;28.01;99202.25;5030446;28;20058;-78
2023/10/14 12:59:40;;;;;;;;;;;;;;;27.10;29.02;99205.09;5023588;28;20404;-78
2023/10/14 13:02:08;;;;;;;;;;;;;;;27.24;29.22;99194.44;5031244;28;19925;-79
2023/10/14 13:04:34;;;;;;;;;;;;;;;27.45;28.60;99195.81;5022966;28;20392;-78
2023/10/14 13:06:59;;;;;;;;;;;;;;;27.46;28.56;99189.63;5024943;28;19917;-79
2023/10/14 13:09:27;;;;;;;;;;;;;;;27.55;28.63;99183.22;5022190;28;20453;-75
2023/10/14 13:11:55;;;;;;;;;;;;;;;27.52;28.85;99180.44;5032366;28;19917;-80
2023/10/14 13:14:30;;;;;;;;;;;;;;;27.27;28.66;99182.84;5033736;28;19936;-75
2023/10/14 13:16:59;;;;;;;;;;;;;;;27.44;28.46;99179.88;5030668;28;19921;-75
2023/10/14 13:19:24;;;;;;;;;;;;;;;27.51;28.64;99175.97;5024377;28;20012;-74
2023/10/14 13:21:49;;;;;;;;;;;;;;;27.37;28.88;99165.72;5041571;28;19983;-80
2023/10/14 13:24:15;;;;;;;;;;;;;;;27.24;29.29;99171.47;5028250;28;19928;-80
2023/10/14 13:26:40;;;;;;;;;;;;;;;27.20;29.07;99171.59;5026063;28;19925;-79
2023/10/14 13:29:06;;;;;;;;;;;;;;;27.41;29.05;99163.56;5026566;28;19948;-80
2023/10/14 13:31:32;;;;;;;;;;;;;;;27.58;28.99;99164.28;5025238;28;20015;-81
2023/10/14 13:33:57;;;;;;;;;;;;;;;27.31;28.95;99160.56;5015175;28;19940;-81